sensor_id;sensor_type;location;lat;lon;timestamp;P1;durP1;ratioP1;P2;durP2;ratioP2
22455;SDS011;11395;53.204;6.502;2022-10-31T00:09:33;4.37;;;3.10;;
22455;SDS011;11395;53.204;6.502;2022-10-31T00:12:00;3.83;;;3.43;;
22455;SDS011;11395;53.204;6.502;2022-10-31T00:14:26;3.20;;;2.90;;
22455;SDS011;11395;53.204;6.502;2022-10-31T00:16:52;4.83;;;2.93;;
22455;SDS011;11395;53.204;6.502;2022-10-31T00:19:18;3.93;;;3.00;;
22455;SDS011;11395;53.204;6.502;2022-10-31T00:21:44;4.63;;;2.87;;
22455;SDS011;11395;53.204;6.502;2022-10-31T00:24:10;4.67;;;3.57;;
22455;SDS011;11395;53.204;6.502;2022-10-31T00:26:37;3.57;;;3.27;;
22455;SDS011;11395;53.204;6.502;2022-10-31T00:29:03;3.67;;;2.90;;
22455;SDS011;11395;53.204;6.502;2022-10-31T00:31:30;4.17;;;2.80;;
22455;SDS011;11395;53.204;6.502;2022-10-31T00:33:56;3.57;;;2.70;;
22455;SDS011;11395;53.204;6.502;2022-10-31T00:36:26;2.97;;;2.67;;
22455;SDS011;11395;53.204;6.502;2022-10-31T00:38:52;4.57;;;2.90;;
22455;SDS011;11395;53.204;6.502;2022-10-31T00:41:20;3.53;;;3.20;;
22455;SDS011;11395;53.204;6.502;2022-10-31T00:43:46;3.27;;;2.97;;
22455;SDS011;11395;53.204;6.502;2022-10-31T00:46:13;3.57;;;2.90;;
22455;SDS011;11395;53.204;6.502;2022-10-31T00:48:40;4.27;;;2.77;;
22455;SDS011;11395;53.204;6.502;2022-10-31T00:51:07;6.30;;;3.33;;
22455;SDS011;11395;53.204;6.502;2022-10-31T00:53:34;2.50;;;2.30;;
22455;SDS011;11395;53.204;6.502;2022-10-31T00:56:00;3.57;;;3.27;;
22455;SDS011;11395;53.204;6.502;2022-10-31T00:58:27;5.33;;;3.37;;
22455;SDS011;11395;53.204;6.502;2022-10-31T01:09:35;4.00;;;3.00;;
22455;SDS011;11395;53.204;6.502;2022-10-31T01:12:02;3.37;;;3.07;;
22455;SDS011;11395;53.204;6.502;2022-10-31T01:14:29;3.20;;;3.00;;
22455;SDS011;11395;53.204;6.502;2022-10-31T01:16:56;2.87;;;2.67;;
22455;SDS011;11395;53.204;6.502;2022-10-31T01:19:23;3.13;;;2.57;;
22455;SDS011;11395;53.204;6.502;2022-10-31T01:21:49;3.00;;;2.50;;
22455;SDS011;11395;53.204;6.502;2022-10-31T01:24:15;3.00;;;2.63;;
22455;SDS011;11395;53.204;6.502;2022-10-31T01:26:41;4.00;;;3.60;;
22455;SDS011;11395;53.204;6.502;2022-10-31T01:29:08;3.23;;;2.93;;
22455;SDS011;11395;53.204;6.502;2022-10-31T01:31:36;2.97;;;2.77;;
22455;SDS011;11395;53.204;6.502;2022-10-31T01:34:03;2.57;;;2.37;;
22455;SDS011;11395;53.204;6.502;2022-10-31T01:36:32;3.40;;;2.40;;
22455;SDS011;11395;53.204;6.502;2022-10-31T01:39:02;4.27;;;2.70;;
22455;SDS011;11395;53.204;6.502;2022-10-31T01:41:31;3.17;;;2.87;;
22455;SDS011;11395;53.204;6.502;2022-10-31T01:44:00;2.83;;;2.60;;
22455;SDS011;11395;53.204;6.502;2022-10-31T01:55:22;4.20;;;2.80;;
22455;SDS011;11395;53.204;6.502;2022-10-31T01:58:02;3.03;;;2.60;;
22455;SDS011;11395;53.204;6.502;2022-10-31T02:09:33;3.23;;;2.70;;
22455;SDS011;11395;53.204;6.502;2022-10-31T02:12:02;3.53;;;2.47;;
22455;SDS011;11395;53.204;6.502;2022-10-31T02:14:29;2.70;;;2.50;;
22455;SDS011;11395;53.204;6.502;2022-10-31T02:16:57;2.57;;;2.37;;
22455;SDS011;11395;53.204;6.502;2022-10-31T02:22:27;2.60;;;2.40;;
22455;SDS011;11395;53.204;6.502;2022-10-31T02:30:22;3.67;;;3.27;;
22455;SDS011;11395;53.204;6.502;2022-10-31T02:35:25;2.40;;;2.30;;
22455;SDS011;11395;53.204;6.502;2022-10-31T02:49:24;2.60;;;2.40;;
22455;SDS011;11395;53.204;6.502;2022-10-31T02:54:50;3.13;;;2.70;;
22455;SDS011;11395;53.204;6.502;2022-10-31T02:57:20;3.13;;;2.47;;
22455;SDS011;11395;53.204;6.502;2022-10-31T02:59:54;2.77;;;2.50;;
22455;SDS011;11395;53.204;6.502;2022-10-31T03:12:40;2.47;;;2.27;;
22455;SDS011;11395;53.204;6.502;2022-10-31T03:17:59;4.03;;;2.50;;
22455;SDS011;11395;53.204;6.502;2022-10-31T03:20:36;2.47;;;2.27;;
22455;SDS011;11395;53.204;6.502;2022-10-31T03:23:07;2.63;;;2.20;;
22455;SDS011;11395;53.204;6.502;2022-10-31T03:25:39;2.63;;;2.43;;
22455;SDS011;11395;53.204;6.502;2022-10-31T03:28:07;2.90;;;2.50;;
22455;SDS011;11395;53.204;6.502;2022-10-31T03:30:38;2.30;;;2.10;;
22455;SDS011;11395;53.204;6.502;2022-10-31T03:33:08;2.80;;;2.47;;
22455;SDS011;11395;53.204;6.502;2022-10-31T03:35:39;2.77;;;2.57;;
22455;SDS011;11395;53.204;6.502;2022-10-31T03:38:10;2.67;;;2.30;;
22455;SDS011;11395;53.204;6.502;2022-10-31T03:40:37;2.60;;;2.40;;
22455;SDS011;11395;53.204;6.502;2022-10-31T03:43:07;3.50;;;2.77;;
22455;SDS011;11395;53.204;6.502;2022-10-31T03:45:39;2.37;;;2.17;;
22455;SDS011;11395;53.204;6.502;2022-10-31T03:48:11;2.13;;;1.93;;
22455;SDS011;11395;53.204;6.502;2022-10-31T03:50:42;2.77;;;2.23;;
22455;SDS011;11395;53.204;6.502;2022-10-31T03:53:31;2.67;;;2.50;;
22455;SDS011;11395;53.204;6.502;2022-10-31T03:56:02;2.80;;;2.20;;
22455;SDS011;11395;53.204;6.502;2022-10-31T03:58:36;2.70;;;2.50;;
22455;SDS011;11395;53.204;6.502;2022-10-31T04:01:09;2.83;;;2.30;;
22455;SDS011;11395;53.204;6.502;2022-10-31T04:03:40;2.33;;;2.13;;
22455;SDS011;11395;53.204;6.502;2022-10-31T04:06:10;2.30;;;2.10;;
22455;SDS011;11395;53.204;6.502;2022-10-31T04:08:41;3.03;;;2.10;;
22455;SDS011;11395;53.204;6.502;2022-10-31T04:11:23;2.47;;;2.27;;
22455;SDS011;11395;53.204;6.502;2022-10-31T04:14:14;2.43;;;2.23;;
22455;SDS011;11395;53.204;6.502;2022-10-31T04:16:41;2.27;;;2.07;;
22455;SDS011;11395;53.204;6.502;2022-10-31T04:19:10;2.03;;;1.93;;
22455;SDS011;11395;53.204;6.502;2022-10-31T04:21:37;2.00;;;1.87;;
22455;SDS011;11395;53.204;6.502;2022-10-31T04:24:04;2.30;;;2.17;;
22455;SDS011;11395;53.204;6.502;2022-10-31T04:26:30;2.73;;;2.43;;
22455;SDS011;11395;53.204;6.502;2022-10-31T04:28:57;2.50;;;2.30;;
22455;SDS011;11395;53.204;6.502;2022-10-31T04:31:26;2.37;;;2.20;;
22455;SDS011;11395;53.204;6.502;2022-10-31T04:33:52;2.37;;;2.17;;
22455;SDS011;11395;53.204;6.502;2022-10-31T04:36:19;2.20;;;2.00;;
22455;SDS011;11395;53.204;6.502;2022-10-31T04:38:46;2.43;;;2.23;;
22455;SDS011;11395;53.204;6.502;2022-10-31T04:41:30;2.67;;;2.47;;
22455;SDS011;11395;53.204;6.502;2022-10-31T04:44:01;2.03;;;1.90;;
22455;SDS011;11395;53.204;6.502;2022-10-31T04:46:27;2.40;;;2.20;;
22455;SDS011;11395;53.204;6.502;2022-10-31T04:48:56;2.10;;;1.90;;
22455;SDS011;11395;53.204;6.502;2022-10-31T04:51:23;2.53;;;2.33;;
22455;SDS011;11395;53.204;6.502;2022-10-31T04:53:50;2.33;;;2.20;;
22455;SDS011;11395;53.204;6.502;2022-10-31T04:56:35;2.43;;;2.23;;
22455;SDS011;11395;53.204;6.502;2022-10-31T04:59:08;2.13;;;1.93;;
22455;SDS011;11395;53.204;6.502;2022-10-31T05:01:46;2.07;;;1.90;;
22455;SDS011;11395;53.204;6.502;2022-10-31T05:04:12;2.47;;;2.27;;
22455;SDS011;11395;53.204;6.502;2022-10-31T05:06:38;2.27;;;2.07;;
22455;SDS011;11395;53.204;6.502;2022-10-31T05:09:04;2.47;;;2.27;;
22455;SDS011;11395;53.204;6.502;2022-10-31T05:11:30;2.13;;;1.93;;
22455;SDS011;11395;53.204;6.502;2022-10-31T05:14:14;2.30;;;2.10;;
22455;SDS011;11395;53.204;6.502;2022-10-31T05:16:59;2.40;;;2.20;;
22455;SDS011;11395;53.204;6.502;2022-10-31T05:19:48;2.17;;;2.00;;
22455;SDS011;11395;53.204;6.502;2022-10-31T05:22:34;2.30;;;2.10;;
22455;SDS011;11395;53.204;6.502;2022-10-31T05:25:00;2.17;;;2.07;;
22455;SDS011;11395;53.204;6.502;2022-10-31T05:27:26;1.80;;;1.70;;
22455;SDS011;11395;53.204;6.502;2022-10-31T05:29:52;2.00;;;1.90;;
22455;SDS011;11395;53.204;6.502;2022-10-31T05:32:18;2.10;;;1.90;;
22455;SDS011;11395;53.204;6.502;2022-10-31T05:35:21;2.00;;;1.90;;
22455;SDS011;11395;53.204;6.502;2022-10-31T05:38:07;1.60;;;1.50;;
22455;SDS011;11395;53.204;6.502;2022-10-31T05:40:33;1.80;;;1.60;;
22455;SDS011;11395;53.204;6.502;2022-10-31T05:43:01;1.70;;;1.60;;
22455;SDS011;11395;53.204;6.502;2022-10-31T05:45:27;1.73;;;1.50;;
22455;SDS011;11395;53.204;6.502;2022-10-31T05:48:00;1.70;;;1.60;;
22455;SDS011;11395;53.204;6.502;2022-10-31T05:50:46;3.03;;;1.40;;
22455;SDS011;11395;53.204;6.502;2022-10-31T05:53:15;1.80;;;1.60;;
22455;SDS011;11395;53.204;6.502;2022-10-31T05:55:42;1.60;;;1.50;;
22455;SDS011;11395;53.204;6.502;2022-10-31T05:58:14;1.90;;;1.80;;
22455;SDS011;11395;53.204;6.502;2022-10-31T06:00:48;1.80;;;1.70;;
22455;SDS011;11395;53.204;6.502;2022-10-31T06:03:14;1.80;;;1.70;;
22455;SDS011;11395;53.204;6.502;2022-10-31T06:05:44;2.07;;;1.30;;
22455;SDS011;11395;53.204;6.502;2022-10-31T06:08:11;1.57;;;1.47;;
22455;SDS011;11395;53.204;6.502;2022-10-31T06:10:39;1.40;;;1.37;;
22455;SDS011;11395;53.204;6.502;2022-10-31T06:13:05;1.73;;;1.63;;
22455;SDS011;11395;53.204;6.502;2022-10-31T06:15:42;1.77;;;1.67;;
22455;SDS011;11395;53.204;6.502;2022-10-31T06:18:09;1.23;;;1.23;;
22455;SDS011;11395;53.204;6.502;2022-10-31T06:20:44;1.40;;;1.30;;
22455;SDS011;11395;53.204;6.502;2022-10-31T06:23:10;1.67;;;1.57;;
22455;SDS011;11395;53.204;6.502;2022-10-31T06:25:37;1.47;;;1.37;;
22455;SDS011;11395;53.204;6.502;2022-10-31T06:28:04;1.60;;;1.60;;
22455;SDS011;11395;53.204;6.502;2022-10-31T06:30:45;2.10;;;1.60;;
22455;SDS011;11395;53.204;6.502;2022-10-31T06:33:11;1.40;;;1.30;;
22455;SDS011;11395;53.204;6.502;2022-10-31T06:35:45;1.83;;;1.67;;
22455;SDS011;11395;53.204;6.502;2022-10-31T06:38:13;1.50;;;1.40;;
22455;SDS011;11395;53.204;6.502;2022-10-31T06:40:41;1.60;;;1.50;;
22455;SDS011;11395;53.204;6.502;2022-10-31T06:43:22;1.40;;;1.30;;
22455;SDS011;11395;53.204;6.502;2022-10-31T06:45:55;1.50;;;1.40;;
22455;SDS011;11395;53.204;6.502;2022-10-31T06:48:25;1.40;;;1.30;;
22455;SDS011;11395;53.204;6.502;2022-10-31T06:51:14;1.63;;;1.43;;
22455;SDS011;11395;53.204;6.502;2022-10-31T06:53:41;1.43;;;1.33;;
22455;SDS011;11395;53.204;6.502;2022-10-31T06:56:09;1.63;;;1.53;;
22455;SDS011;11395;53.204;6.502;2022-10-31T06:58:41;1.77;;;1.57;;
22455;SDS011;11395;53.204;6.502;2022-10-31T07:01:09;4.90;;;2.40;;
22455;SDS011;11395;53.204;6.502;2022-10-31T07:03:35;1.37;;;1.27;;
22455;SDS011;11395;53.204;6.502;2022-10-31T07:06:01;1.73;;;1.50;;
22455;SDS011;11395;53.204;6.502;2022-10-31T07:08:27;2.10;;;1.70;;
22455;SDS011;11395;53.204;6.502;2022-10-31T07:10:55;1.70;;;1.60;;
22455;SDS011;11395;53.204;6.502;2022-10-31T07:13:23;1.80;;;1.70;;
22455;SDS011;11395;53.204;6.502;2022-10-31T07:16:02;1.47;;;1.37;;
22455;SDS011;11395;53.204;6.502;2022-10-31T07:18:32;2.13;;;1.50;;
22455;SDS011;11395;53.204;6.502;2022-10-31T07:20:59;2.10;;;1.67;;
22455;SDS011;11395;53.204;6.502;2022-10-31T07:23:26;1.70;;;1.60;;
22455;SDS011;11395;53.204;6.502;2022-10-31T07:26:12;1.57;;;1.47;;
22455;SDS011;11395;53.204;6.502;2022-10-31T07:28:45;1.50;;;1.40;;
22455;SDS011;11395;53.204;6.502;2022-10-31T07:31:12;1.40;;;1.30;;
22455;SDS011;11395;53.204;6.502;2022-10-31T07:33:39;1.50;;;1.40;;
22455;SDS011;11395;53.204;6.502;2022-10-31T07:36:35;2.37;;;1.80;;
22455;SDS011;11395;53.204;6.502;2022-10-31T07:39:03;1.17;;;1.17;;
22455;SDS011;11395;53.204;6.502;2022-10-31T07:41:32;1.50;;;1.40;;
22455;SDS011;11395;53.204;6.502;2022-10-31T07:43:58;1.40;;;1.30;;
22455;SDS011;11395;53.204;6.502;2022-10-31T07:46:50;1.90;;;1.50;;
22455;SDS011;11395;53.204;6.502;2022-10-31T07:49:35;2.07;;;1.50;;
22455;SDS011;11395;53.204;6.502;2022-10-31T07:52:40;1.50;;;1.40;;
22455;SDS011;11395;53.204;6.502;2022-10-31T07:55:41;1.40;;;1.30;;
22455;SDS011;11395;53.204;6.502;2022-10-31T07:58:12;1.73;;;1.37;;
22455;SDS011;11395;53.204;6.502;2022-10-31T08:00:40;1.43;;;1.30;;
22455;SDS011;11395;53.204;6.502;2022-10-31T08:03:09;1.73;;;1.63;;
22455;SDS011;11395;53.204;6.502;2022-10-31T08:06:06;1.50;;;1.40;;
22455;SDS011;11395;53.204;6.502;2022-10-31T08:08:38;1.30;;;1.20;;
22455;SDS011;11395;53.204;6.502;2022-10-31T08:11:06;1.53;;;1.40;;
22455;SDS011;11395;53.204;6.502;2022-10-31T08:13:32;1.50;;;1.40;;
22455;SDS011;11395;53.204;6.502;2022-10-31T08:15:58;3.07;;;1.70;;
22455;SDS011;11395;53.204;6.502;2022-10-31T08:18:29;1.90;;;1.77;;
22455;SDS011;11395;53.204;6.502;2022-10-31T08:20:56;2.40;;;1.40;;
22455;SDS011;11395;53.204;6.502;2022-10-31T08:23:23;1.60;;;1.50;;
22455;SDS011;11395;53.204;6.502;2022-10-31T08:25:51;2.13;;;1.47;;
22455;SDS011;11395;53.204;6.502;2022-10-31T08:28:17;1.50;;;1.40;;
22455;SDS011;11395;53.204;6.502;2022-10-31T08:30:46;2.33;;;1.90;;
22455;SDS011;11395;53.204;6.502;2022-10-31T08:33:31;2.07;;;1.60;;
22455;SDS011;11395;53.204;6.502;2022-10-31T08:36:35;1.53;;;1.43;;
22455;SDS011;11395;53.204;6.502;2022-10-31T08:39:09;1.50;;;1.40;;
22455;SDS011;11395;53.204;6.502;2022-10-31T08:41:35;2.17;;;1.40;;
22455;SDS011;11395;53.204;6.502;2022-10-31T08:44:01;1.70;;;1.10;;
22455;SDS011;11395;53.204;6.502;2022-10-31T08:46:27;1.70;;;1.60;;
22455;SDS011;11395;53.204;6.502;2022-10-31T08:48:54;1.47;;;1.30;;
22455;SDS011;11395;53.204;6.502;2022-10-31T08:51:20;1.63;;;1.50;;
22455;SDS011;11395;53.204;6.502;2022-10-31T08:53:50;2.20;;;1.70;;
22455;SDS011;11395;53.204;6.502;2022-10-31T08:56:34;2.73;;;1.37;;
22455;SDS011;11395;53.204;6.502;2022-10-31T08:59:04;3.80;;;1.57;;
22455;SDS011;11395;53.204;6.502;2022-10-31T09:01:49;2.43;;;1.50;;
22455;SDS011;11395;53.204;6.502;2022-10-31T09:04:15;3.07;;;1.50;;
22455;SDS011;11395;53.204;6.502;2022-10-31T09:06:41;2.07;;;1.87;;
22455;SDS011;11395;53.204;6.502;2022-10-31T09:09:08;1.60;;;1.50;;
22455;SDS011;11395;53.204;6.502;2022-10-31T09:11:34;2.00;;;1.80;;
22455;SDS011;11395;53.204;6.502;2022-10-31T09:14:20;2.13;;;1.53;;
22455;SDS011;11395;53.204;6.502;2022-10-31T09:17:18;2.57;;;1.70;;
22455;SDS011;11395;53.204;6.502;2022-10-31T09:20:13;1.83;;;1.73;;
22455;SDS011;11395;53.204;6.502;2022-10-31T09:22:39;2.40;;;1.70;;
22455;SDS011;11395;53.204;6.502;2022-10-31T09:25:06;2.00;;;1.80;;
22455;SDS011;11395;53.204;6.502;2022-10-31T09:27:33;1.90;;;1.70;;
22455;SDS011;11395;53.204;6.502;2022-10-31T09:30:00;1.57;;;1.40;;
22455;SDS011;11395;53.204;6.502;2022-10-31T09:32:26;1.97;;;1.80;;
22455;SDS011;11395;53.204;6.502;2022-10-31T09:34:53;2.13;;;1.60;;
22455;SDS011;11395;53.204;6.502;2022-10-31T09:37:19;1.93;;;1.70;;
22455;SDS011;11395;53.204;6.502;2022-10-31T09:39:46;1.57;;;1.47;;
22455;SDS011;11395;53.204;6.502;2022-10-31T09:42:32;1.67;;;1.30;;
22455;SDS011;11395;53.204;6.502;2022-10-31T09:45:07;1.53;;;1.40;;
22455;SDS011;11395;53.204;6.502;2022-10-31T09:50:36;1.50;;;1.40;;
22455;SDS011;11395;53.204;6.502;2022-10-31T09:56:16;2.40;;;1.73;;
22455;SDS011;11395;53.204;6.502;2022-10-31T09:58:50;2.60;;;1.70;;
22455;SDS011;11395;53.204;6.502;2022-10-31T10:01:42;2.07;;;1.70;;
22455;SDS011;11395;53.204;6.502;2022-10-31T10:10:22;1.57;;;1.47;;
22455;SDS011;11395;53.204;6.502;2022-10-31T10:13:37;2.10;;;1.53;;
22455;SDS011;11395;53.204;6.502;2022-10-31T10:30:21;1.77;;;1.20;;
22455;SDS011;11395;53.204;6.502;2022-10-31T10:33:14;1.63;;;1.43;;
22455;SDS011;11395;53.204;6.502;2022-10-31T10:35:58;1.27;;;1.20;;
22455;SDS011;11395;53.204;6.502;2022-10-31T10:40:55;1.30;;;1.20;;
22455;SDS011;11395;53.204;6.502;2022-10-31T10:43:43;1.37;;;1.37;;
22455;SDS011;11395;53.204;6.502;2022-10-31T10:57:58;1.77;;;1.57;;
22455;SDS011;11395;53.204;6.502;2022-10-31T11:00:46;1.40;;;1.30;;
22455;SDS011;11395;53.204;6.502;2022-10-31T11:03:13;1.63;;;1.47;;
22455;SDS011;11395;53.204;6.502;2022-10-31T11:08:31;1.33;;;1.30;;
22455;SDS011;11395;53.204;6.502;2022-10-31T11:11:00;1.50;;;1.40;;
22455;SDS011;11395;53.204;6.502;2022-10-31T11:13:34;1.90;;;1.77;;
22455;SDS011;11395;53.204;6.502;2022-10-31T11:16:03;1.53;;;1.40;;
22455;SDS011;11395;53.204;6.502;2022-10-31T11:18:30;1.60;;;1.30;;
22455;SDS011;11395;53.204;6.502;2022-10-31T11:21:02;2.07;;;1.40;;
22455;SDS011;11395;53.204;6.502;2022-10-31T11:23:30;2.00;;;1.40;;
22455;SDS011;11395;53.204;6.502;2022-10-31T11:26:04;2.47;;;1.80;;
22455;SDS011;11395;53.204;6.502;2022-10-31T11:28:38;1.53;;;1.43;;
22455;SDS011;11395;53.204;6.502;2022-10-31T11:31:12;1.57;;;1.47;;
22455;SDS011;11395;53.204;6.502;2022-10-31T11:33:47;1.60;;;1.50;;
22455;SDS011;11395;53.204;6.502;2022-10-31T11:36:37;1.20;;;1.20;;
22455;SDS011;11395;53.204;6.502;2022-10-31T11:39:22;1.43;;;1.43;;
22455;SDS011;11395;53.204;6.502;2022-10-31T11:41:50;1.60;;;1.33;;
22455;SDS011;11395;53.204;6.502;2022-10-31T11:44:20;1.60;;;1.50;;
22455;SDS011;11395;53.204;6.502;2022-10-31T11:46:56;1.60;;;1.50;;
22455;SDS011;11395;53.204;6.502;2022-10-31T11:52:13;1.70;;;1.60;;
22455;SDS011;11395;53.204;6.502;2022-10-31T12:00:00;1.37;;;1.10;;
22455;SDS011;11395;53.204;6.502;2022-10-31T12:02:37;2.03;;;1.90;;
22455;SDS011;11395;53.204;6.502;2022-10-31T12:05:20;1.60;;;1.50;;
22455;SDS011;11395;53.204;6.502;2022-10-31T12:07:50;1.73;;;1.40;;
22455;SDS011;11395;53.204;6.502;2022-10-31T12:10:17;1.37;;;1.20;;
22455;SDS011;11395;53.204;6.502;2022-10-31T12:15:29;1.47;;;1.30;;
22455;SDS011;11395;53.204;6.502;2022-10-31T12:21:23;1.43;;;1.33;;
22455;SDS011;11395;53.204;6.502;2022-10-31T12:29:25;1.60;;;1.50;;
22455;SDS011;11395;53.204;6.502;2022-10-31T12:32:19;1.73;;;1.50;;
22455;SDS011;11395;53.204;6.502;2022-10-31T12:38:08;1.30;;;1.20;;
22455;SDS011;11395;53.204;6.502;2022-10-31T12:43:36;1.60;;;1.53;;
22455;SDS011;11395;53.204;6.502;2022-10-31T12:46:15;1.50;;;1.40;;
22455;SDS011;11395;53.204;6.502;2022-10-31T12:52:29;1.37;;;1.27;;
22455;SDS011;11395;53.204;6.502;2022-10-31T12:57:33;1.20;;;1.20;;
22455;SDS011;11395;53.204;6.502;2022-10-31T13:00:11;1.77;;;1.33;;
22455;SDS011;11395;53.204;6.502;2022-10-31T13:05:18;1.30;;;1.27;;
22455;SDS011;11395;53.204;6.502;2022-10-31T13:10:50;1.10;;;1.10;;
22455;SDS011;11395;53.204;6.502;2022-10-31T13:13:45;2.63;;;1.40;;
22455;SDS011;11395;53.204;6.502;2022-10-31T13:16:30;1.20;;;1.20;;
22455;SDS011;11395;53.204;6.502;2022-10-31T13:19:02;1.40;;;1.30;;
22455;SDS011;11395;53.204;6.502;2022-10-31T13:21:31;1.10;;;1.10;;
22455;SDS011;11395;53.204;6.502;2022-10-31T13:24:03;1.13;;;1.13;;
22455;SDS011;11395;53.204;6.502;2022-10-31T13:26:38;1.30;;;1.20;;
22455;SDS011;11395;53.204;6.502;2022-10-31T13:32:04;2.03;;;1.10;;
22455;SDS011;11395;53.204;6.502;2022-10-31T13:34:33;1.20;;;1.20;;
22455;SDS011;11395;53.204;6.502;2022-10-31T13:37:06;1.20;;;1.10;;
22455;SDS011;11395;53.204;6.502;2022-10-31T13:42:59;1.30;;;1.20;;
22455;SDS011;11395;53.204;6.502;2022-10-31T13:45:53;1.13;;;1.10;;
22455;SDS011;11395;53.204;6.502;2022-10-31T13:48:41;1.00;;;1.00;;
22455;SDS011;11395;53.204;6.502;2022-10-31T13:51:09;1.50;;;1.10;;
22455;SDS011;11395;53.204;6.502;2022-10-31T13:53:43;3.00;;;1.33;;
22455;SDS011;11395;53.204;6.502;2022-10-31T13:56:13;1.20;;;1.10;;
22455;SDS011;11395;53.204;6.502;2022-10-31T14:01:46;1.33;;;1.00;;
22455;SDS011;11395;53.204;6.502;2022-10-31T14:09:26;1.20;;;1.10;;
22455;SDS011;11395;53.204;6.502;2022-10-31T14:12:05;1.23;;;1.00;;
22455;SDS011;11395;53.204;6.502;2022-10-31T14:14:43;1.40;;;1.30;;
22455;SDS011;11395;53.204;6.502;2022-10-31T14:17:17;1.83;;;1.00;;
22455;SDS011;11395;53.204;6.502;2022-10-31T14:22:47;1.40;;;1.30;;
22455;SDS011;11395;53.204;6.502;2022-10-31T14:25:30;1.87;;;1.20;;
22455;SDS011;11395;53.204;6.502;2022-10-31T14:27:58;1.40;;;1.30;;
22455;SDS011;11395;53.204;6.502;2022-10-31T14:30:28;1.47;;;1.37;;
22455;SDS011;11395;53.204;6.502;2022-10-31T14:32:57;1.87;;;1.20;;
22455;SDS011;11395;53.204;6.502;2022-10-31T14:36:23;1.97;;;1.40;;
22455;SDS011;11395;53.204;6.502;2022-10-31T14:39:13;1.43;;;1.33;;
22455;SDS011;11395;53.204;6.502;2022-10-31T14:45:18;1.20;;;1.10;;
22455;SDS011;11395;53.204;6.502;2022-10-31T14:51:24;2.13;;;1.17;;
22455;SDS011;11395;53.204;6.502;2022-10-31T14:54:15;2.63;;;1.33;;
22455;SDS011;11395;53.204;6.502;2022-10-31T15:00:05;1.17;;;1.17;;
22455;SDS011;11395;53.204;6.502;2022-10-31T15:02:39;1.80;;;1.10;;
22455;SDS011;11395;53.204;6.502;2022-10-31T15:05:29;1.27;;;1.20;;
22455;SDS011;11395;53.204;6.502;2022-10-31T15:07:58;1.83;;;1.43;;
22455;SDS011;11395;53.204;6.502;2022-10-31T15:10:32;1.47;;;1.27;;
22455;SDS011;11395;53.204;6.502;2022-10-31T15:13:19;1.10;;;1.00;;
22455;SDS011;11395;53.204;6.502;2022-10-31T15:15:50;1.77;;;1.50;;
22455;SDS011;11395;53.204;6.502;2022-10-31T15:18:21;1.40;;;1.23;;
22455;SDS011;11395;53.204;6.502;2022-10-31T15:20:52;1.30;;;1.20;;
22455;SDS011;11395;53.204;6.502;2022-10-31T15:23:28;1.97;;;1.40;;
22455;SDS011;11395;53.204;6.502;2022-10-31T15:26:02;1.23;;;1.13;;
22455;SDS011;11395;53.204;6.502;2022-10-31T15:28:30;1.37;;;1.27;;
22455;SDS011;11395;53.204;6.502;2022-10-31T15:31:01;1.33;;;1.17;;
22455;SDS011;11395;53.204;6.502;2022-10-31T15:33:29;1.30;;;1.27;;
22455;SDS011;11395;53.204;6.502;2022-10-31T15:36:01;1.70;;;1.20;;
22455;SDS011;11395;53.204;6.502;2022-10-31T15:38:28;1.40;;;1.30;;
22455;SDS011;11395;53.204;6.502;2022-10-31T15:41:18;1.30;;;1.20;;
22455;SDS011;11395;53.204;6.502;2022-10-31T15:43:50;1.43;;;1.27;;
22455;SDS011;11395;53.204;6.502;2022-10-31T15:46:17;1.10;;;1.10;;
22455;SDS011;11395;53.204;6.502;2022-10-31T15:48:44;1.50;;;1.07;;
22455;SDS011;11395;53.204;6.502;2022-10-31T15:51:12;1.27;;;1.20;;
22455;SDS011;11395;53.204;6.502;2022-10-31T15:53:49;1.83;;;1.50;;
22455;SDS011;11395;53.204;6.502;2022-10-31T15:56:27;2.60;;;1.50;;
22455;SDS011;11395;53.204;6.502;2022-10-31T15:58:56;1.80;;;1.70;;
22455;SDS011;11395;53.204;6.502;2022-10-31T16:01:31;2.13;;;1.93;;
22455;SDS011;11395;53.204;6.502;2022-10-31T16:04:00;3.20;;;2.23;;
22455;SDS011;11395;53.204;6.502;2022-10-31T16:06:29;2.93;;;2.37;;
22455;SDS011;11395;53.204;6.502;2022-10-31T16:08:57;3.63;;;2.53;;
22455;SDS011;11395;53.204;6.502;2022-10-31T16:11:29;2.60;;;2.17;;
22455;SDS011;11395;53.204;6.502;2022-10-31T16:16:40;2.97;;;2.60;;
22455;SDS011;11395;53.204;6.502;2022-10-31T16:19:16;5.67;;;2.60;;
22455;SDS011;11395;53.204;6.502;2022-10-31T16:21:46;5.23;;;2.90;;
22455;SDS011;11395;53.204;6.502;2022-10-31T16:24:17;5.93;;;3.13;;
22455;SDS011;11395;53.204;6.502;2022-10-31T16:26:55;3.03;;;2.57;;
22455;SDS011;11395;53.204;6.502;2022-10-31T16:29:38;3.03;;;2.57;;
22455;SDS011;11395;53.204;6.502;2022-10-31T16:32:24;3.07;;;2.40;;
22455;SDS011;11395;53.204;6.502;2022-10-31T16:37:36;3.83;;;2.30;;
22455;SDS011;11395;53.204;6.502;2022-10-31T16:40:07;3.17;;;2.63;;
22455;SDS011;11395;53.204;6.502;2022-10-31T16:42:36;3.80;;;2.50;;
22455;SDS011;11395;53.204;6.502;2022-10-31T16:45:02;3.13;;;2.47;;
22455;SDS011;11395;53.204;6.502;2022-10-31T16:47:31;3.93;;;2.10;;
22455;SDS011;11395;53.204;6.502;2022-10-31T16:49:58;3.70;;;1.97;;
22455;SDS011;11395;53.204;6.502;2022-10-31T16:52:27;3.07;;;2.10;;
22455;SDS011;11395;53.204;6.502;2022-10-31T16:54:53;5.23;;;2.20;;
22455;SDS011;11395;53.204;6.502;2022-10-31T16:57:23;2.53;;;2.10;;
22455;SDS011;11395;53.204;6.502;2022-10-31T16:59:53;2.13;;;1.80;;
22455;SDS011;11395;53.204;6.502;2022-10-31T17:02:19;2.93;;;1.80;;
22455;SDS011;11395;53.204;6.502;2022-10-31T17:04:46;2.90;;;1.97;;
22455;SDS011;11395;53.204;6.502;2022-10-31T17:07:13;2.10;;;1.90;;
22455;SDS011;11395;53.204;6.502;2022-10-31T17:09:39;2.20;;;1.77;;
22455;SDS011;11395;53.204;6.502;2022-10-31T17:12:06;3.07;;;1.93;;
22455;SDS011;11395;53.204;6.502;2022-10-31T17:14:40;4.20;;;2.07;;
22455;SDS011;11395;53.204;6.502;2022-10-31T17:17:07;2.30;;;1.63;;
22455;SDS011;11395;53.204;6.502;2022-10-31T17:19:33;2.80;;;2.00;;
22455;SDS011;11395;53.204;6.502;2022-10-31T17:22:00;3.80;;;1.77;;
22455;SDS011;11395;53.204;6.502;2022-10-31T17:24:27;2.33;;;2.00;;
22455;SDS011;11395;53.204;6.502;2022-10-31T17:26:54;2.30;;;1.93;;
22455;SDS011;11395;53.204;6.502;2022-10-31T17:29:20;3.03;;;2.00;;
22455;SDS011;11395;53.204;6.502;2022-10-31T17:31:46;2.57;;;2.07;;
22455;SDS011;11395;53.204;6.502;2022-10-31T17:34:14;1.90;;;1.80;;
22455;SDS011;11395;53.204;6.502;2022-10-31T17:36:40;5.57;;;2.73;;
22455;SDS011;11395;53.204;6.502;2022-10-31T17:39:08;2.17;;;1.93;;
22455;SDS011;11395;53.204;6.502;2022-10-31T17:41:35;5.33;;;2.13;;
22455;SDS011;11395;53.204;6.502;2022-10-31T17:44:02;2.87;;;2.00;;
22455;SDS011;11395;53.204;6.502;2022-10-31T17:46:28;2.53;;;2.27;;
22455;SDS011;11395;53.204;6.502;2022-10-31T17:48:55;2.47;;;2.27;;
22455;SDS011;11395;53.204;6.502;2022-10-31T17:51:22;3.33;;;2.33;;
22455;SDS011;11395;53.204;6.502;2022-10-31T17:53:48;3.40;;;2.43;;
22455;SDS011;11395;53.204;6.502;2022-10-31T17:56:15;2.97;;;2.03;;
22455;SDS011;11395;53.204;6.502;2022-10-31T17:58:41;3.40;;;2.30;;
22455;SDS011;11395;53.204;6.502;2022-10-31T18:01:08;3.97;;;2.30;;
22455;SDS011;11395;53.204;6.502;2022-10-31T18:03:37;2.50;;;1.90;;
22455;SDS011;11395;53.204;6.502;2022-10-31T18:06:04;1.97;;;1.77;;
22455;SDS011;11395;53.204;6.502;2022-10-31T18:08:31;2.47;;;1.90;;
22455;SDS011;11395;53.204;6.502;2022-10-31T18:11:04;2.33;;;1.67;;
22455;SDS011;11395;53.204;6.502;2022-10-31T18:13:36;3.23;;;2.10;;
22455;SDS011;11395;53.204;6.502;2022-10-31T18:16:07;1.87;;;1.70;;
22455;SDS011;11395;53.204;6.502;2022-10-31T18:18:34;2.87;;;1.73;;
22455;SDS011;11395;53.204;6.502;2022-10-31T18:21:01;2.60;;;1.53;;
22455;SDS011;11395;53.204;6.502;2022-10-31T18:23:27;2.37;;;1.70;;
22455;SDS011;11395;53.204;6.502;2022-10-31T18:25:54;2.03;;;1.93;;